createdAt,value
2018-04-25T00:00:59.059Z,76.29
2018-04-25T00:01:59.494Z,76.77
2018-04-25T00:02:59.921Z,76.77
2018-04-25T00:04:00.352Z,77.06
2018-04-25T00:05:00.784Z,75.81
2018-04-25T00:06:01.232Z,73.80
2018-04-25T00:07:01.662Z,72.85
2018-04-25T00:08:02.078Z,71.80
2018-04-25T00:09:02.509Z,72.18
2018-04-25T00:10:02.953Z,72.94
2018-04-25T00:11:03.377Z,72.85
2018-04-25T00:12:03.803Z,71.80
2018-04-25T00:13:04.236Z,72.37
2018-04-25T00:14:04.669Z,71.61
2018-04-25T00:15:05.099Z,71.32
2018-04-25T00:16:05.615Z,69.98
2018-04-25T00:17:05.967Z,69.50
2018-04-25T00:18:06.392Z,66.73
2018-04-25T00:19:06.829Z,65.20
2018-04-25T00:20:07.259Z,64.53
2018-04-25T00:21:07.685Z,64.91
2018-04-25T00:22:08.121Z,64.53
2018-04-25T00:23:08.548Z,64.25
2018-04-25T00:24:08.985Z,64.62
2018-04-25T00:25:09.409Z,63.39
2018-04-25T00:26:09.844Z,63.39
2018-04-25T00:27:10.277Z,63.67
2018-04-25T00:28:10.707Z,63.19
2018-04-25T00:29:11.139Z,63.67
2018-04-25T00:30:11.587Z,63.39
2018-04-25T00:31:12.007Z,63.29
2018-04-25T00:32:12.431Z,62.14
2018-04-25T00:33:12.861Z,60.71
2018-04-25T00:34:13.299Z,61.57
2018-04-25T00:35:13.725Z,62.71
2018-04-25T00:36:14.158Z,60.71
2018-04-25T00:37:14.591Z,59.18
2018-04-25T00:38:15.016Z,59.08
2018-04-25T00:39:15.447Z,58.12
2018-04-25T00:40:15.878Z,57.07
2018-04-25T00:41:16.384Z,56.76
2018-04-25T00:42:16.743Z,55.42
2018-04-25T00:43:17.175Z,54.66
2018-04-25T00:44:17.602Z,51.79
2018-04-25T00:45:18.047Z,50.45
2018-04-25T00:46:18.465Z,49.14
2018-04-25T00:47:18.896Z,49.23
2018-04-25T00:48:19.331Z,49.62
2018-04-25T00:49:19.759Z,50.76
2018-04-25T00:50:20.191Z,51.50
2018-04-25T00:51:20.620Z,50.74
2018-04-25T00:52:21.058Z,49.80
2018-04-25T00:53:21.489Z,49.40
2018-04-25T00:54:21.915Z,48.28
2018-04-25T00:55:22.345Z,48.47
2018-04-25T00:56:22.785Z,49.90
2018-04-25T00:57:23.209Z,50.38
2018-04-25T00:58:23.639Z,50.09
2018-04-25T00:59:24.069Z,49.78
2018-04-25T01:00:24.503Z,48.44
2018-04-25T01:01:24.940Z,48.44
2018-04-25T01:02:25.369Z,48.47
2018-04-25T01:03:25.796Z,46.46
2018-04-25T01:04:26.228Z,46.27
2018-04-25T01:05:26.657Z,46.56
2018-04-25T01:06:27.118Z,46.56
2018-04-25T01:07:27.523Z,46.56
2018-04-25T01:08:27.955Z,47.30
2018-04-25T01:09:28.403Z,46.92
2018-04-25T01:10:28.822Z,46.82
2018-04-25T01:11:29.272Z,45.10
2018-04-25T01:12:29.677Z,45.77
2018-04-25T01:13:30.108Z,45.67
2018-04-25T01:14:30.538Z,45.10
2018-04-25T01:15:30.974Z,45.67
2018-04-25T01:16:31.409Z,44.84
2018-04-25T01:17:31.832Z,44.34
2018-04-25T01:18:32.267Z,45.01
2018-04-25T01:19:32.707Z,44.91
2018-04-25T01:20:33.127Z,44.81
2018-04-25T01:21:33.559Z,44.24
2018-04-25T01:22:33.986Z,44.72
2018-04-25T01:23:34.421Z,44.45
2018-04-25T01:24:34.848Z,45.01
2018-04-25T01:25:35.289Z,45.67
2018-04-25T01:26:35.717Z,44.81
2018-04-25T01:27:36.141Z,44.15
2018-04-25T01:28:36.570Z,44.91
2018-04-25T01:29:37.012Z,45.48
2018-04-25T01:30:37.438Z,45.20
2018-04-25T01:31:37.869Z,44.34
2018-04-25T01:32:38.308Z,44.43
2018-04-25T01:33:38.730Z,44.24
2018-04-25T01:34:39.161Z,42.90
2018-04-25T01:35:39.590Z,43.48
2018-04-25T01:36:40.089Z,42.81
2018-04-25T01:37:40.461Z,42.71
2018-04-25T01:38:40.885Z,43.09
2018-04-25T01:39:41.314Z,43.66
2018-04-25T01:40:41.749Z,43.48
2018-04-25T01:41:42.176Z,42.90
2018-04-25T01:42:42.610Z,41.47
2018-04-25T01:43:43.039Z,40.03
2018-04-25T01:44:43.467Z,37.07
2018-04-25T01:45:43.905Z,37.36
2018-04-25T01:46:44.329Z,37.74
2018-04-25T01:47:44.773Z,38.12
2018-04-25T01:48:45.193Z,37.93
2018-04-25T01:49:45.627Z,38.79
2018-04-25T01:50:46.058Z,38.60
2018-04-25T01:51:46.513Z,38.41
2018-04-25T01:52:46.918Z,37.36
2018-04-25T01:53:47.350Z,36.21
2018-04-25T01:54:47.786Z,35.64
2018-04-25T01:55:48.210Z,34.49
2018-04-25T01:56:48.640Z,33.64
2018-04-25T01:57:49.071Z,33.54
2018-04-25T01:58:49.501Z,33.06
2018-04-25T01:59:49.930Z,33.25
2018-04-25T02:00:50.366Z,33.35
2018-04-25T02:01:50.797Z,34.30
2018-04-25T02:02:51.226Z,33.06
2018-04-25T02:03:51.656Z,33.83
2018-04-25T02:04:52.086Z,34.88
2018-04-25T02:05:52.522Z,33.83
2018-04-25T02:06:52.947Z,32.29
2018-04-25T02:07:53.380Z,31.05
2018-04-25T02:08:53.810Z,30.58
2018-04-25T02:09:54.244Z,31.05
2018-04-25T02:10:54.670Z,31.05
2018-04-25T02:11:55.102Z,31.92
2018-04-25T02:12:55.534Z,31.24
2018-04-25T02:13:55.962Z,29.81
2018-04-25T02:14:56.395Z,30.58
2018-04-25T02:15:56.824Z,30.58
2018-04-25T02:16:57.256Z,28.66
2018-04-25T02:17:57.686Z,28.95
2018-04-25T02:18:58.182Z,28.95
2018-04-25T02:19:58.550Z,27.61
2018-04-25T02:20:58.982Z,28.28
2018-04-25T02:21:59.414Z,29.72
2018-04-25T02:22:59.841Z,30.48
2018-04-25T02:24:00.274Z,31.24
2018-04-25T02:25:00.700Z,31.92
2018-04-25T02:26:01.131Z,31.63
2018-04-25T02:27:01.577Z,32.49
2018-04-25T02:28:01.999Z,34.01
2018-04-25T02:29:02.439Z,35.45
2018-04-25T02:30:02.858Z,37.26
2018-04-25T02:31:03.292Z,37.46
2018-04-25T02:32:03.720Z,36.98
2018-04-25T02:33:04.153Z,36.50
2018-04-25T02:34:04.584Z,36.79
2018-04-25T02:35:05.013Z,36.31
2018-04-25T02:36:05.451Z,35.83
2018-04-25T02:37:05.880Z,34.59
2018-04-25T02:38:06.306Z,33.64
2018-04-25T02:39:06.738Z,33.35
2018-04-25T02:40:07.167Z,32.68
2018-04-25T02:41:07.604Z,31.99
2018-04-25T02:42:08.031Z,30.75
2018-04-25T02:43:08.463Z,29.70
2018-04-25T02:44:08.893Z,29.03
2018-04-25T02:45:09.321Z,28.27
2018-04-25T02:46:09.754Z,27.60
2018-04-25T02:47:10.184Z,27.70
2018-04-25T02:48:10.617Z,27.22
2018-04-25T02:49:11.045Z,27.61
2018-04-25T02:50:11.477Z,27.12
2018-04-25T02:51:11.910Z,27.79
2018-04-25T02:52:12.338Z,28.08
2018-04-25T02:53:12.771Z,27.89
2018-04-25T02:54:13.202Z,27.41
2018-04-25T02:55:13.634Z,26.45
2018-04-25T02:56:14.062Z,25.69
2018-04-25T02:57:14.494Z,25.50
2018-04-25T02:58:14.923Z,24.64
2018-04-25T02:59:15.350Z,23.68
2018-04-25T03:00:15.781Z,22.16
2018-04-25T03:01:16.213Z,20.92
2018-04-25T03:02:16.668Z,19.77
2018-04-25T03:03:17.073Z,18.43
2018-04-25T03:04:17.505Z,17.76
2018-04-25T03:05:17.940Z,17.10
2018-04-25T03:06:18.364Z,16.81
2018-04-25T03:07:18.794Z,16.33
2018-04-25T03:08:19.229Z,16.42
2018-04-25T03:09:19.655Z,16.33
2018-04-25T03:10:20.085Z,15.66
2018-04-25T03:11:20.516Z,15.66
2018-04-25T03:12:20.951Z,14.80
2018-04-25T03:13:21.376Z,14.99
2018-04-25T03:14:21.805Z,15.66
2018-04-25T03:15:22.245Z,15.47
2018-04-25T03:16:22.671Z,15.95
2018-04-25T03:17:23.099Z,15.66
2018-04-25T03:18:23.527Z,16.52
2018-04-25T03:19:23.958Z,16.42
2018-04-25T03:20:24.395Z,16.24
2018-04-25T03:21:24.817Z,15.66
2018-04-25T03:22:25.250Z,15.85
2018-04-25T03:23:25.682Z,16.24
2018-04-25T03:24:26.110Z,16.24
2018-04-25T03:25:26.539Z,16.42
2018-04-25T03:26:26.968Z,16.24
2018-04-25T03:27:27.402Z,16.42
2018-04-25T03:28:27.827Z,16.81
2018-04-25T03:29:28.261Z,16.81
2018-04-25T03:30:28.692Z,16.24
2018-04-25T03:31:29.119Z,15.66
2018-04-25T03:32:29.549Z,16.52
2018-04-25T03:33:29.978Z,16.33
2018-04-25T03:34:30.407Z,16.61
2018-04-25T03:35:30.842Z,16.51
2018-04-25T03:36:31.271Z,16.52
2018-04-25T03:37:31.699Z,16.33
2018-04-25T03:38:32.136Z,16.42
2018-04-25T03:39:32.559Z,16.33
2018-04-25T03:40:32.987Z,16.81
2018-04-25T03:41:33.420Z,16.90
2018-04-25T03:42:33.859Z,17.19
2018-04-25T03:43:34.277Z,18.05
2018-04-25T03:44:34.711Z,18.15
2018-04-25T03:45:35.141Z,18.15
2018-04-25T03:46:35.569Z,18.24
2018-04-25T03:47:35.997Z,19.01
2018-04-25T03:48:36.429Z,19.48
2018-04-25T03:49:36.867Z,19.67
2018-04-25T03:50:37.291Z,19.20
2018-04-25T03:51:37.719Z,19.38
2018-04-25T03:52:38.147Z,17.95
2018-04-25T03:53:38.581Z,17.66
2018-04-25T03:54:39.009Z,20.15
2018-04-25T03:55:39.441Z,21.58
2018-04-25T03:56:39.917Z,22.82
2018-04-25T03:57:40.310Z,24.64
2018-04-25T03:58:40.735Z,25.79
2018-04-25T03:59:41.158Z,25.50
2018-04-25T04:00:41.591Z,26.26
2018-04-25T04:01:42.033Z,25.69
2018-04-25T04:02:42.462Z,25.31
2018-04-25T04:03:42.886Z,25.50
2018-04-25T04:04:43.318Z,25.40
2018-04-25T04:05:43.743Z,25.40
2018-04-25T04:06:44.174Z,26.26
2018-04-25T04:07:44.608Z,25.31
2018-04-25T04:08:45.047Z,26.84
2018-04-25T04:09:45.465Z,27.12
2018-04-25T04:10:45.892Z,25.98
2018-04-25T04:11:46.327Z,24.93
2018-04-25T04:12:46.753Z,25.40
2018-04-25T04:13:47.189Z,23.68
2018-04-25T04:14:47.617Z,23.30
2018-04-25T04:15:48.046Z,25.69
2018-04-25T04:16:48.484Z,27.03
2018-04-25T04:17:48.905Z,27.60
2018-04-25T04:18:49.337Z,27.79
2018-04-25T04:19:49.773Z,27.98
2018-04-25T04:20:50.203Z,27.50
2018-04-25T04:21:50.630Z,27.79
2018-04-25T04:22:51.055Z,26.35
2018-04-25T04:23:51.493Z,25.50
2018-04-25T04:24:51.929Z,24.54
2018-04-25T04:25:52.353Z,24.45
2018-04-25T04:26:52.785Z,24.07
2018-04-25T04:27:53.216Z,24.35
2018-04-25T04:28:53.643Z,24.26
2018-04-25T04:29:54.072Z,22.44
2018-04-25T04:30:54.503Z,21.77
2018-04-25T04:31:54.937Z,22.06
2018-04-25T04:32:55.364Z,22.82
2018-04-25T04:33:55.797Z,23.88
2018-04-25T04:34:56.225Z,26.26
2018-04-25T04:35:56.655Z,26.35
2018-04-25T04:36:57.086Z,25.50
2018-04-25T04:37:57.588Z,25.98
2018-04-25T04:38:57.956Z,26.45
2018-04-25T04:39:58.378Z,28.08
2018-04-25T04:40:58.810Z,26.26
2018-04-25T04:41:59.236Z,26.85
2018-04-25T04:42:59.671Z,28.94
2018-04-25T04:44:00.100Z,28.65
2018-04-25T04:45:00.536Z,29.61
2018-04-25T04:46:00.959Z,29.80
2018-04-25T04:47:01.403Z,29.41
2018-04-25T04:48:01.840Z,29.61
2018-04-25T04:49:02.252Z,28.76
2018-04-25T04:50:02.712Z,29.05
2018-04-25T04:51:03.143Z,30.38
2018-04-25T04:52:03.552Z,30.86
2018-04-25T04:53:04.003Z,30.96
2018-04-25T04:54:04.437Z,32.10
2018-04-25T04:55:04.865Z,32.29
2018-04-25T04:56:05.275Z,32.10
2018-04-25T04:57:05.698Z,28.95
2018-04-25T04:58:06.122Z,30.77
2018-04-25T04:59:06.559Z,31.24
2018-04-25T05:00:06.999Z,31.53
2018-04-25T05:01:07.428Z,31.92
2018-04-25T05:02:07.850Z,32.01
2018-04-25T05:03:08.331Z,33.35
2018-04-25T05:04:08.713Z,33.25
2018-04-25T05:05:09.163Z,33.15
2018-04-25T05:06:09.575Z,32.49
2018-04-25T05:07:10.002Z,34.49
2018-04-25T05:08:10.444Z,35.16
2018-04-25T05:09:10.867Z,34.01
2018-04-25T05:10:11.306Z,33.83
2018-04-25T05:11:11.725Z,35.45
2018-04-25T05:12:12.187Z,37.65
2018-04-25T05:13:12.685Z,37.93
2018-04-25T05:14:13.012Z,37.93
2018-04-25T05:15:13.455Z,38.70
2018-04-25T05:16:13.902Z,39.08
2018-04-25T05:17:14.346Z,38.89
2018-04-25T05:18:14.745Z,38.03
2018-04-25T05:19:15.174Z,38.81
2018-04-25T05:20:15.634Z,37.19
2018-04-25T05:21:16.035Z,36.71
2018-04-25T05:22:16.466Z,37.66
2018-04-25T05:23:16.895Z,39.77
2018-04-25T05:24:17.339Z,41.01
2018-04-25T05:25:17.769Z,41.68
2018-04-25T05:26:18.193Z,44.55
2018-04-25T05:27:18.627Z,45.03
2018-04-25T05:28:19.055Z,45.51
2018-04-25T05:29:19.499Z,45.70
2018-04-25T05:30:19.925Z,45.70
2018-04-25T05:31:20.388Z,43.79
2018-04-25T05:32:20.779Z,47.03
2018-04-25T05:33:21.210Z,46.84
2018-04-25T05:34:21.660Z,46.08
2018-04-25T05:35:22.074Z,44.65
2018-04-25T05:36:22.505Z,44.45
2018-04-25T05:37:22.949Z,42.93
2018-04-25T05:38:23.377Z,42.73
2018-04-25T05:39:23.801Z,43.12
2018-04-25T05:40:24.248Z,45.51
2018-04-25T05:41:24.705Z,47.61
2018-04-25T05:42:25.147Z,47.23
2018-04-25T05:43:25.532Z,46.84
2018-04-25T05:44:25.965Z,46.94
2018-04-25T05:45:26.415Z,44.36
2018-04-25T05:46:26.816Z,46.75
2018-04-25T05:47:27.263Z,45.22
2018-04-25T05:48:27.688Z,45.41
2018-04-25T05:49:28.131Z,40.82
2018-04-25T05:50:28.542Z,39.77
2018-04-25T05:51:28.980Z,39.27
2018-04-25T05:52:29.407Z,40.89
2018-04-25T05:53:29.836Z,37.74
2018-04-25T05:54:30.281Z,37.55
2018-04-25T05:55:30.708Z,37.84
2018-04-25T05:56:31.134Z,38.89
2018-04-25T05:57:31.587Z,39.08
2018-04-25T05:58:31.993Z,36.88
2018-04-25T05:59:32.423Z,34.97
2018-04-25T06:00:32.865Z,35.26
2018-04-25T06:01:33.295Z,35.64
2018-04-25T06:02:33.720Z,34.40
2018-04-25T06:03:34.193Z,34.99
2018-04-25T06:04:34.601Z,37.17
2018-04-25T06:05:35.031Z,36.99
2018-04-25T06:06:35.454Z,38.62
2018-04-25T06:07:35.878Z,38.43
2018-04-25T06:08:36.313Z,38.53
2018-04-25T06:09:36.729Z,36.80
2018-04-25T06:10:37.189Z,36.61
2018-04-25T06:11:37.594Z,36.52
2018-04-25T06:12:38.113Z,36.99
2018-04-25T06:13:38.466Z,40.72
2018-04-25T06:14:38.886Z,41.58
2018-04-25T06:15:39.319Z,40.25
2018-04-25T06:16:39.754Z,43.79
2018-04-25T06:17:40.183Z,46.27
2018-04-25T06:18:40.623Z,48.28
2018-04-25T06:19:41.063Z,47.13
2018-04-25T06:20:41.502Z,48.09
2018-04-25T06:21:41.919Z,45.51
2018-04-25T06:22:42.343Z,47.23
2018-04-25T06:23:42.773Z,47.71
2018-04-25T06:24:43.199Z,46.84
2018-04-25T06:25:43.623Z,49.14
2018-04-25T06:26:44.064Z,47.13
2018-04-25T06:27:44.505Z,45.03
2018-04-25T06:28:44.926Z,45.22
2018-04-25T06:29:45.350Z,46.17
2018-04-25T06:30:45.791Z,48.18
2018-04-25T06:31:46.242Z,48.28
2018-04-25T06:32:46.658Z,50.57
2018-04-25T06:33:47.080Z,52.10
2018-04-25T06:34:47.572Z,52.39
2018-04-25T06:35:47.943Z,50.89
2018-04-25T06:36:48.376Z,52.51
2018-04-25T06:37:48.804Z,56.05
2018-04-25T06:38:49.233Z,57.26
2018-04-25T06:39:49.670Z,57.07
2018-04-25T06:40:50.100Z,57.75
2018-04-25T06:41:50.531Z,55.57
2018-04-25T06:42:50.967Z,51.87
2018-04-25T06:43:51.391Z,57.99
2018-04-25T06:44:51.903Z,61.02
2018-04-25T06:45:52.253Z,63.23
2018-04-25T06:46:52.684Z,63.23
2018-04-25T06:47:53.117Z,63.70
2018-04-25T06:48:53.547Z,61.69
2018-04-25T06:49:53.980Z,60.74
2018-04-25T06:50:54.414Z,64.66
2018-04-25T06:51:54.840Z,64.56
2018-04-25T06:52:55.273Z,63.42
2018-04-25T06:53:55.705Z,63.42
2018-04-25T06:54:56.142Z,62.62
2018-04-25T06:55:56.567Z,64.02
2018-04-25T06:56:57.005Z,66.41
2018-04-25T06:57:57.452Z,67.76
2018-04-25T06:58:57.868Z,70.53
2018-04-25T06:59:58.291Z,70.34
2018-04-25T07:00:58.726Z,70.91
2018-04-25T07:01:59.160Z,71.87
2018-04-25T07:02:59.591Z,70.24
2018-04-25T07:04:00.027Z,69.38
2018-04-25T07:05:00.454Z,70.53
2018-04-25T07:06:00.893Z,70.81
2018-04-25T07:07:01.323Z,71.39
2018-04-25T07:08:01.840Z,71.68
2018-04-25T07:09:02.182Z,71.20
2018-04-25T07:10:02.617Z,70.81
2018-04-25T07:11:03.049Z,67.94
2018-04-25T07:12:03.478Z,69.92
2018-04-25T07:13:03.918Z,70.81
2018-04-25T07:14:04.428Z,69.00
2018-04-25T07:15:04.772Z,68.71
2018-04-25T07:16:05.226Z,69.48
2018-04-25T07:17:05.643Z,68.71
2018-04-25T07:18:06.073Z,70.81
2018-04-25T07:19:06.506Z,71.39
2018-04-25T07:20:06.993Z,71.01
2018-04-25T07:21:07.369Z,70.91
2018-04-25T07:22:07.805Z,70.72
2018-04-25T07:23:08.244Z,70.62
2018-04-25T07:24:08.676Z,71.39
2018-04-25T07:25:09.120Z,73.30
2018-04-25T07:26:09.539Z,72.54
2018-04-25T07:27:09.964Z,74.36
2018-04-25T07:28:10.396Z,74.16
2018-04-25T07:29:10.830Z,72.83
2018-04-25T07:30:11.261Z,73.02
2018-04-25T07:31:11.694Z,74.45
2018-04-25T07:32:12.131Z,74.84
2018-04-25T07:33:12.554Z,73.69
2018-04-25T07:34:12.997Z,72.73
2018-04-25T07:35:13.423Z,73.11
2018-04-25T07:36:13.910Z,73.59
2018-04-25T07:37:14.287Z,72.34
2018-04-25T07:38:14.719Z,72.06
2018-04-25T07:39:15.158Z,73.30
2018-04-25T07:40:15.585Z,73.97
2018-04-25T07:41:16.024Z,73.97
2018-04-25T07:42:16.454Z,74.74
2018-04-25T07:43:16.886Z,74.16
2018-04-25T07:44:17.316Z,74.55
2018-04-25T07:45:17.750Z,75.51
2018-04-25T07:46:18.179Z,75.70
2018-04-25T07:47:18.615Z,76.65
2018-04-25T07:48:19.047Z,76.37
2018-04-25T07:49:19.483Z,77.84
2018-04-25T07:50:19.915Z,78.03
2018-04-25T07:51:20.348Z,77.55
2018-04-25T07:52:20.836Z,76.21
2018-04-25T07:53:21.215Z,76.12
2018-04-25T07:54:21.644Z,76.40
2018-04-25T07:55:22.076Z,77.65
2018-04-25T07:56:22.511Z,77.55
2018-04-25T07:57:22.943Z,77.36
2018-04-25T07:58:23.378Z,77.55
2018-04-25T07:59:23.810Z,79.08
2018-04-25T08:00:24.242Z,79.18
2018-04-25T08:01:24.675Z,78.89
2018-04-25T08:02:25.110Z,79.28
2018-04-25T08:03:25.544Z,78.99
2018-04-25T08:04:25.979Z,79.08
2018-04-25T08:05:26.411Z,79.08
2018-04-25T08:06:26.841Z,79.47
2018-04-25T08:07:27.298Z,79.95
2018-04-25T08:08:27.715Z,79.75
2018-04-25T08:09:28.149Z,79.08
2018-04-25T08:10:28.584Z,78.99
2018-04-25T08:11:29.009Z,79.57
2018-04-25T08:12:29.440Z,80.04
2018-04-25T08:13:29.877Z,79.85
2018-04-25T08:14:30.312Z,80.37
2018-04-25T08:15:30.746Z,81.81
2018-04-25T08:16:31.176Z,81.62
2018-04-25T08:17:31.622Z,82.14
2018-04-25T08:18:32.048Z,81.75
2018-04-25T08:19:32.488Z,82.90
2018-04-25T08:20:32.914Z,83.95
2018-04-25T08:21:33.348Z,83.52
2018-04-25T08:22:33.783Z,84.15
2018-04-25T08:23:34.220Z,84.28
2018-04-25T08:24:37.534Z,85.34
2018-04-25T08:25:36.040Z,85.00
2018-04-25T08:26:35.532Z,85.96
2018-04-25T08:27:50.539Z,85.48
2018-04-25T08:28:39.057Z,86.63
2018-04-25T08:29:36.840Z,86.54
2018-04-25T08:30:37.269Z,86.97
2018-04-25T08:31:37.705Z,86.82
2018-04-25T08:32:38.145Z,86.54
2018-04-25T08:33:38.624Z,86.82
2018-04-25T08:35:00.181Z,86.97
2018-04-25T08:35:39.461Z,86.97
2018-04-25T08:36:39.890Z,87.64
2018-04-25T08:37:40.339Z,86.78
2018-04-25T08:38:40.774Z,86.93
2018-04-25T08:39:41.199Z,87.21
2018-04-25T08:40:41.641Z,87.26
2018-04-25T08:41:42.085Z,86.78
2018-04-25T08:42:42.520Z,86.93
2018-04-25T08:43:42.980Z,87.41
2018-04-25T08:44:43.408Z,87.16
2018-04-25T08:45:43.817Z,87.21
2018-04-25T08:46:44.277Z,87.12
2018-04-25T08:47:44.699Z,87.45
2018-04-25T08:48:45.134Z,86.78
2018-04-25T08:49:46.549Z,87.12
2018-04-25T08:50:46.008Z,87.35
2018-04-25T08:51:46.435Z,87.16
2018-04-25T08:52:46.907Z,87.40
2018-04-25T08:53:50.050Z,87.30
2018-04-25T08:54:47.756Z,86.92
2018-04-25T08:55:48.197Z,87.68
2018-04-25T08:56:51.570Z,87.68
2018-04-25T08:57:49.055Z,87.49
2018-04-25T08:58:52.050Z,87.05
2018-04-25T08:59:49.947Z,87.59
2018-04-25T09:00:50.373Z,87.54
2018-04-25T09:01:50.814Z,87.21
2018-04-25T09:02:51.247Z,87.63
2018-04-25T09:03:51.689Z,87.63
2018-04-25T09:04:52.159Z,87.54
2018-04-25T09:05:52.652Z,87.44
2018-04-25T09:06:53.022Z,87.25
2018-04-25T09:07:53.459Z,87.98
2018-04-25T09:08:53.892Z,88.49
2018-04-25T09:09:54.314Z,88.06
2018-04-25T09:10:54.795Z,87.15
2018-04-25T09:11:55.191Z,86.28
2018-04-25T09:12:55.622Z,85.99
2018-04-25T09:13:56.065Z,86.09
2018-04-25T09:14:56.512Z,85.75
2018-04-25T09:15:56.942Z,85.84
2018-04-25T09:16:57.387Z,84.54
2018-04-25T09:17:57.829Z,83.23
2018-04-25T09:18:58.264Z,82.56
2018-04-25T09:19:58.702Z,83.00
2018-04-25T09:20:59.176Z,83.81
2018-04-25T09:21:59.582Z,82.02
2018-04-25T09:23:55.233Z,79.21
2018-04-25T09:24:55.663Z,77.19
2018-04-25T09:26:50.263Z,73.27
2018-04-25T09:27:50.721Z,73.89
2018-04-25T09:29:45.307Z,78.02
2018-04-25T09:30:45.741Z,80.87
2018-04-25T09:32:40.354Z,74.18
2018-04-25T09:33:40.807Z,76.51
2018-04-25T09:35:35.408Z,78.79
2018-04-25T09:36:35.853Z,77.00
2018-04-25T09:38:30.449Z,75.84
2018-04-25T09:39:30.902Z,73.91
2018-04-25T09:41:25.582Z,72.96
2018-04-25T09:42:25.964Z,73.31
2018-04-25T09:44:20.572Z,67.14
2018-04-25T09:45:21.024Z,67.20
2018-04-25T09:47:15.630Z,66.08
2018-04-25T09:48:16.078Z,66.72
2018-04-25T09:50:10.690Z,69.93
2018-04-25T09:51:11.130Z,71.66
2018-04-25T09:53:06.716Z,73.88
2018-04-25T09:54:07.162Z,79.19
2018-04-25T09:56:01.765Z,74.84
2018-04-25T09:57:02.200Z,75.13
2018-04-25T09:58:56.802Z,73.97
2018-04-25T09:59:57.252Z,77.46
2018-04-25T10:01:51.858Z,76.53
2018-04-25T10:02:52.285Z,75.03
2018-04-25T10:04:47.885Z,73.71
2018-04-25T10:05:48.314Z,75.92
2018-04-25T10:07:43.895Z,74.99
2018-04-25T10:08:44.329Z,75.38
2018-04-25T10:10:38.933Z,74.41
2018-04-25T10:11:39.364Z,75.57
2018-04-25T10:13:33.960Z,74.67
2018-04-25T10:14:34.411Z,74.96
2018-04-25T10:16:28.993Z,75.44
2018-04-25T10:17:29.424Z,77.61
2018-04-25T10:19:25.014Z,77.81
2018-04-25T10:20:25.437Z,78.28
2018-04-25T10:22:20.045Z,76.88
2018-04-25T10:23:20.487Z,75.34
2018-04-25T10:25:16.046Z,71.95
2018-04-25T10:26:16.514Z,69.45
2018-04-25T10:28:11.090Z,64.82
2018-04-25T10:29:11.535Z,62.40
2018-04-25T10:31:06.120Z,68.71
2018-04-25T10:32:06.653Z,66.56
2018-04-25T10:34:01.187Z,67.55
2018-04-25T10:35:01.631Z,67.68
2018-04-25T10:36:02.077Z,67.68
2018-04-25T10:37:02.521Z,70.82
2018-04-25T10:38:02.970Z,72.74
2018-04-25T10:39:03.415Z,73.32
2018-04-25T10:40:03.863Z,72.84
2018-04-25T10:41:04.307Z,74.15
2018-04-25T10:42:04.754Z,74.29
2018-04-25T10:43:05.201Z,73.32
2018-04-25T10:44:05.651Z,75.15
2018-04-25T10:45:06.090Z,74.86
2018-04-25T10:46:06.528Z,74.09
2018-04-25T10:47:06.978Z,75.79
2018-04-25T10:48:07.419Z,75.88
2018-04-25T10:49:07.858Z,76.71
2018-04-25T10:50:08.304Z,77.00
2018-04-25T10:51:08.745Z,77.00
2018-04-25T10:52:09.188Z,77.04
2018-04-25T10:53:09.632Z,76.36
2018-04-25T10:54:10.070Z,76.56
2018-04-25T10:55:10.512Z,76.65
2018-04-25T10:56:10.948Z,76.81
2018-04-25T10:57:11.398Z,77.67
2018-04-25T10:58:11.834Z,77.23
2018-04-25T10:59:12.278Z,76.75
2018-04-25T11:00:12.713Z,78.06
2018-04-25T11:01:13.158Z,79.02
2018-04-25T11:02:13.594Z,78.34
2018-04-25T11:03:14.033Z,77.38
2018-04-25T11:04:14.475Z,77.76
2018-04-25T11:05:14.918Z,80.07
2018-04-25T11:06:15.356Z,79.79
2018-04-25T11:07:15.794Z,78.92
2018-04-25T11:08:16.241Z,81.13
2018-04-25T11:09:16.671Z,84.26
2018-04-25T11:10:17.126Z,89.31
2018-04-25T11:11:17.553Z,91.96
2018-04-25T11:12:18.006Z,92.82
2018-04-25T11:13:18.435Z,92.10
2018-04-25T11:14:18.870Z,85.92
2018-04-25T11:15:19.309Z,80.74
2018-04-25T11:16:19.743Z,70.06
2018-04-25T11:17:20.185Z,63.80
2018-04-25T11:18:20.621Z,51.82
2018-04-25T11:19:21.057Z,45.48
2018-04-25T11:20:21.550Z,42.99
2018-04-25T11:21:21.922Z,37.34
2018-04-25T11:22:22.366Z,33.61
2018-04-25T11:23:22.792Z,32.93
2018-04-25T11:24:23.229Z,33.80
2018-04-25T11:25:23.663Z,34.94
2018-04-25T11:26:24.159Z,33.20
2018-04-25T11:27:24.533Z,27.66
2018-04-25T11:28:24.967Z,31.10
2018-04-25T11:29:25.402Z,28.02
2018-04-25T11:30:25.836Z,23.43
2018-04-25T11:31:26.277Z,22.38
2018-04-25T11:32:26.708Z,21.71
2018-04-25T11:33:27.135Z,14.73
2018-04-25T11:34:27.565Z,16.26
2018-04-25T11:35:27.999Z,15.78
2018-04-25T11:36:28.491Z,13.39
2018-04-25T11:37:28.873Z,15.78
2018-04-25T11:38:29.293Z,20.85
2018-04-25T11:39:29.733Z,21.33
2018-04-25T11:40:30.162Z,22.96
2018-04-25T11:41:30.595Z,27.26
2018-04-25T11:42:31.028Z,30.61
2018-04-25T11:43:31.462Z,30.41
2018-04-25T11:44:31.898Z,28.02
2018-04-25T11:45:32.326Z,32.52
2018-04-25T11:46:32.774Z,36.65
2018-04-25T11:47:33.186Z,38.95
2018-04-25T11:48:33.629Z,35.31
2018-04-25T11:49:34.054Z,40.78
2018-04-25T11:50:34.490Z,48.93
2018-04-25T11:51:34.923Z,50.65
2018-04-25T11:52:35.366Z,51.89
2018-04-25T11:53:35.790Z,52.87
2018-04-25T11:54:36.220Z,55.08
2018-04-25T11:55:36.656Z,61.11
2018-04-25T11:56:37.090Z,64.95
2018-04-25T11:57:37.533Z,68.11
2018-04-25T11:58:38.016Z,69.17
2018-04-25T11:59:38.447Z,70.54
2018-04-25T12:00:38.831Z,71.69
2018-04-25T12:01:39.261Z,72.94
2018-04-25T12:02:39.694Z,71.88
2018-04-25T12:03:40.127Z,68.14
2018-04-25T12:04:40.600Z,72.30
2018-04-25T12:05:41.000Z,70.73
2018-04-25T12:06:41.436Z,68.24
2018-04-25T12:07:41.867Z,71.11
2018-04-25T12:08:42.305Z,72.39
2018-04-25T12:09:42.745Z,73.83
2018-04-25T12:10:43.176Z,76.23
2018-04-25T12:11:43.620Z,74.98
2018-04-25T12:12:44.042Z,74.89
2018-04-25T12:13:44.482Z,77.19
2018-04-25T12:14:44.921Z,75.56
2018-04-25T12:15:45.351Z,80.26
2018-04-25T12:16:45.787Z,80.40
2018-04-25T12:17:46.223Z,79.91
2018-04-25T12:18:46.679Z,82.08
2018-04-25T12:19:47.091Z,81.79
2018-04-25T12:20:47.533Z,82.12
2018-04-25T12:21:47.955Z,82.89
2018-04-25T12:22:48.403Z,83.27
2018-04-25T12:23:48.828Z,84.04
2018-04-25T12:24:49.263Z,83.65
2018-04-25T12:25:49.700Z,83.94
2018-04-25T12:26:50.134Z,84.04
2018-04-25T12:27:50.572Z,84.61
2018-04-25T12:28:51.005Z,84.14
2018-04-25T12:29:51.437Z,84.66
2018-04-25T12:30:51.874Z,84.66
2018-04-25T12:31:52.311Z,85.42
2018-04-25T12:32:52.743Z,85.62
2018-04-25T12:33:53.187Z,84.47
2018-04-25T12:34:53.620Z,85.52
2018-04-25T12:35:54.156Z,85.52
2018-04-25T12:36:54.502Z,86.10
2018-04-25T12:37:54.925Z,85.71
2018-04-25T12:38:55.373Z,86.38
2018-04-25T12:39:55.796Z,86.87
2018-04-25T12:40:56.235Z,86.54
2018-04-25T12:41:56.670Z,86.92
2018-04-25T12:42:57.117Z,86.34
2018-04-25T12:43:57.556Z,87.40
2018-04-25T12:44:57.984Z,87.68
2018-04-25T12:45:58.424Z,86.82
2018-04-25T12:46:58.854Z,87.30
2018-04-25T12:47:59.285Z,87.05
2018-04-25T12:48:59.725Z,85.62
2018-04-25T12:50:00.171Z,85.52
2018-04-25T12:51:00.654Z,85.14
2018-04-25T12:52:01.038Z,85.62
2018-04-25T12:53:01.471Z,85.42
2018-04-25T12:54:01.925Z,85.42
2018-04-25T12:55:02.389Z,86.19
2018-04-25T12:56:02.792Z,86.15
2018-04-25T12:57:03.222Z,85.28
2018-04-25T12:58:03.658Z,85.77
2018-04-25T12:59:04.102Z,85.48
2018-04-25T13:00:04.590Z,85.52
2018-04-25T13:01:04.974Z,85.62
2018-04-25T13:02:05.396Z,85.24
2018-04-25T13:03:05.881Z,84.66
2018-04-25T13:04:06.268Z,86.15
2018-04-25T13:05:06.716Z,85.52
2018-04-25T13:06:07.145Z,85.62
2018-04-25T13:07:07.575Z,85.42
2018-04-25T13:08:08.036Z,85.42
2018-04-25T13:09:08.550Z,85.66
2018-04-25T13:10:08.892Z,85.57
2018-04-25T13:11:09.367Z,85.37
2018-04-25T13:12:09.783Z,84.89
2018-04-25T13:13:10.207Z,85.37
2018-04-25T13:14:10.637Z,85.18
2018-04-25T13:15:11.099Z,84.70
2018-04-25T13:16:11.515Z,84.45
2018-04-25T13:17:11.945Z,84.80
2018-04-25T13:18:12.385Z,84.89
2018-04-25T13:19:12.828Z,84.80
2018-04-25T13:20:13.268Z,84.89
2018-04-25T13:21:13.714Z,84.45